Terminal Aerodrome Forecast
Issued by NWS Quad Cities IA IL

Home | Current Version | Previous Version | Text Only | Print | Product List | Glossary On
Versions: 1 2 3 4 5 6 7 8 9 10 11 12 13 14 15 16 17 18 19 20 21 22 23
000
FTUS43 KDVN 171444 AAB
TAFMLI
TAF AMD
KMLI 171444Z 1715/1812 15015G19KT P6SM -SHRA BKN025 OVC045
     FM171600 15016G22KT 6SM BR OVC015
     FM172300 14010KT 4SM -DZ OVC007
     FM180300 18006KT 2SM -RA BR OVC003
     FM181000 30008KT 4SM -RA BR OVC007=

USA.gov is the U.S. government's official web portal to all federal, state and local government web resources and services.